Time;durP1;ratioP1;P1;durP2;ratioP2;P2;SDS_P1;SDS_P2;PMS_P1;PMS_P2;Temp;Humidity;BMP_temperature;BMP_pressure;BME280_temperature;BME280_humidity;BME280_pressure;Samples;Min_cycle;Max_cycle;Signal;HPM_P1;HPM_P2
2022/02/12 00:02:11;;;;;;;20.42;3.33;;;0.00;99.90;;;;;;5025205;28;20037;-70
2022/02/12 00:04:37;;;;;;;12.52;2.63;;;0.00;99.90;;;;;;5027743;28;20052;-70
2022/02/12 00:07:03;;;;;;;11.95;2.30;;;-0.10;99.90;;;;;;5026132;28;20060;-70
2022/02/12 00:09:29;;;;;;;18.38;3.20;;;-0.20;99.90;;;;;;5014814;28;20069;-69
2022/02/12 00:11:55;;;;;;;12.02;3.00;;;-0.20;99.90;;;;;;5035787;28;20211;-69
2022/02/12 00:14:21;;;;;;;12.13;3.08;;;-0.30;99.90;;;;;;5025429;28;20499;-69
2022/02/12 00:16:46;;;;;;;12.63;2.47;;;-0.30;99.90;;;;;;5045348;28;20071;-69
2022/02/12 00:19:12;;;;;;;16.50;2.75;;;-0.30;99.90;;;;;;5046626;28;20052;-69
2022/02/12 00:21:38;;;;;;;14.93;2.70;;;-0.30;99.90;;;;;;5046348;28;20037;-69
2022/02/12 00:24:04;;;;;;;16.08;3.33;;;-0.40;99.90;;;;;;5044651;28;20176;-69
2022/02/12 00:26:30;;;;;;;14.15;3.00;;;-0.40;99.90;;;;;;5046441;28;20044;-69
2022/02/12 00:28:55;;;;;;;16.40;3.53;;;-0.40;99.90;;;;;;5044613;28;20604;-69
2022/02/12 00:31:24;;;;;;;15.30;3.03;;;-0.50;99.90;;;;;;5060141;28;20060;-69
2022/02/12 00:33:50;;;;;;;13.80;2.70;;;-0.50;99.90;;;;;;5047669;28;20094;-69
2022/02/12 00:36:16;;;;;;;11.73;3.00;;;-0.60;99.90;;;;;;5048371;28;20053;-69
2022/02/12 00:38:43;;;;;;;11.20;2.88;;;-0.60;99.90;;;;;;5032447;28;20040;-69
2022/02/12 00:41:09;;;;;;;15.18;3.22;;;-0.60;99.90;;;;;;5031696;28;20036;-69
2022/02/12 00:43:35;;;;;;;19.02;3.20;;;-0.60;99.90;;;;;;5049480;28;20051;-69
2022/02/12 00:46:01;;;;;;;15.52;3.40;;;-0.70;99.90;;;;;;5046929;28;20487;-69
2022/02/12 00:48:26;;;;;;;13.73;3.38;;;-0.70;99.90;;;;;;5048987;28;20094;-69
2022/02/12 00:50:59;;;;;;;23.60;3.80;;;-0.70;99.90;;;;;;5030732;28;20037;-69
2022/02/12 00:53:28;;;;;;;21.73;3.45;;;-0.70;99.90;;;;;;5045491;28;20209;-68
2022/02/12 00:55:53;;;;;;;13.95;2.80;;;-0.70;99.90;;;;;;5032092;28;20048;-69
2022/02/12 00:58:19;;;;;;;11.77;3.35;;;-0.70;99.90;;;;;;5047708;28;20383;-68
2022/02/12 01:00:45;;;;;;;12.60;3.67;;;-0.70;99.90;;;;;;5048386;28;20099;-69
2022/02/12 01:03:11;;;;;;;18.63;3.28;;;-0.60;99.90;;;;;;5028695;28;20092;-69
2022/02/12 01:05:38;;;;;;;14.57;2.78;;;-0.50;99.90;;;;;;5028848;28;20483;-69
2022/02/12 01:08:04;;;;;;;20.67;3.15;;;-0.40;99.90;;;;;;5030666;28;20041;-68
2022/02/12 01:10:32;;;;;;;12.88;2.67;;;-0.40;99.90;;;;;;5029127;28;20045;-68
2022/02/12 01:12:58;;;;;;;13.10;2.40;;;-0.40;99.90;;;;;;5030790;28;20120;-68
2022/02/12 01:15:24;;;;;;;14.90;3.00;;;-0.50;99.90;;;;;;5040651;28;20049;-69
2022/02/12 01:17:50;;;;;;;14.90;3.10;;;-0.50;99.90;;;;;;5038539;28;20545;-68
2022/02/12 01:20:17;;;;;;;10.52;2.47;;;-0.60;99.90;;;;;;5041221;28;20052;-69
2022/02/12 01:22:43;;;;;;;9.38;2.88;;;-0.60;99.90;;;;;;5033945;28;20521;-68
2022/02/12 01:25:09;;;;;;;22.75;3.45;;;-0.70;99.90;;;;;;5028964;28;20115;-69
2022/02/12 01:27:36;;;;;;;15.52;2.50;;;-0.70;99.90;;;;;;5039257;28;20494;-69
2022/02/12 01:30:03;;;;;;;14.75;2.95;;;-0.70;99.90;;;;;;5015949;28;20041;-69
2022/02/12 01:32:29;;;;;;;11.68;2.40;;;-0.70;99.90;;;;;;5047385;28;20044;-68
2022/02/12 01:34:56;;;;;;;19.15;2.97;;;-0.60;99.90;;;;;;5032353;28;20049;-68
2022/02/12 01:37:23;;;;;;;18.25;2.60;;;-0.60;99.90;;;;;;5058209;28;20463;-69
2022/02/12 01:39:50;;;;;;;16.67;2.78;;;-0.70;99.90;;;;;;5025098;28;20395;-69
2022/02/12 01:42:18;;;;;;;17.05;3.08;;;-0.70;99.90;;;;;;5029389;28;20167;-69
2022/02/12 01:44:44;;;;;;;19.92;2.40;;;-0.70;99.90;;;;;;5033226;28;20041;-69
2022/02/12 01:47:11;;;;;;;15.48;2.55;;;-0.80;99.90;;;;;;5045704;28;20052;-69
2022/02/12 01:49:38;;;;;;;15.98;3.05;;;-0.80;99.90;;;;;;5039382;28;20442;-69
2022/02/12 01:52:08;;;;;;;12.15;2.47;;;-0.80;99.90;;;;;;5041359;28;20502;-69
2022/02/12 01:54:34;;;;;;;21.30;2.67;;;-0.70;99.90;;;;;;5044589;28;20135;-69
2022/02/12 01:57:02;;;;;;;12.25;2.28;;;-0.80;99.90;;;;;;5042994;28;20040;-69
2022/02/12 01:59:28;;;;;;;12.25;2.20;;;-0.80;99.90;;;;;;5027539;28;20426;-69
2022/02/12 02:01:54;;;;;;;12.40;2.00;;;-0.80;99.90;;;;;;5045193;28;20029;-69
2022/02/12 02:04:20;;;;;;;16.85;2.88;;;-0.80;99.90;;;;;;5049524;28;20033;-69
2022/02/12 02:06:50;;;;;;;16.63;2.85;;;-0.80;99.90;;;;;;5039234;28;20029;-69
2022/02/12 02:09:17;;;;;;;25.55;3.85;;;-0.70;99.90;;;;;;5030704;28;20071;-69
2022/02/12 02:11:43;;;;;;;12.68;2.30;;;-0.80;99.90;;;;;;5027202;28;20086;-69
2022/02/12 02:14:10;;;;;;;17.45;2.78;;;-0.80;99.90;;;;;;5042918;28;20131;-69
2022/02/12 02:16:36;;;;;;;24.98;3.38;;;-0.80;99.90;;;;;;5021064;28;20044;-69
2022/02/12 02:19:03;;;;;;;12.38;2.85;;;-0.80;99.90;;;;;;5007015;28;20541;-69
2022/02/12 02:21:30;;;;;;;15.75;3.10;;;-0.80;99.90;;;;;;5029042;28;20087;-69
2022/02/12 02:23:56;;;;;;;9.68;2.67;;;-0.80;99.90;;;;;;5030360;28;20048;-69
2022/02/12 02:26:22;;;;;;;12.52;3.20;;;-0.80;99.90;;;;;;5030003;28;20055;-69
2022/02/12 02:28:48;;;;;;;13.68;2.50;;;-0.80;99.90;;;;;;5015738;28;20387;-69
2022/02/12 02:31:14;;;;;;;17.65;3.10;;;-0.80;99.90;;;;;;5032630;28;20130;-69
2022/02/12 02:33:40;;;;;;;9.93;2.45;;;-0.90;99.90;;;;;;5035338;28;20041;-69
2022/02/12 02:36:06;;;;;;;22.27;3.03;;;-0.90;99.90;;;;;;5035145;28;20086;-69
2022/02/12 02:38:32;;;;;;;15.00;2.85;;;-0.90;99.90;;;;;;5049456;28;20506;-69
2022/02/12 02:40:58;;;;;;;21.58;2.60;;;-0.90;99.90;;;;;;5060672;28;20079;-69
2022/02/12 02:43:24;;;;;;;13.32;3.20;;;-0.90;99.90;;;;;;5045591;28;20550;-69
2022/02/12 02:45:51;;;;;;;14.18;2.75;;;-0.90;99.90;;;;;;5025355;28;20524;-69
2022/02/12 02:48:17;;;;;;;22.05;2.90;;;-0.90;99.90;;;;;;5032771;28;20055;-69
2022/02/12 02:56:13;;;;;;;17.02;2.90;;;-0.80;99.90;;;;;;5049503;28;20052;-69
2022/02/12 02:58:39;;;;;;;12.13;2.47;;;-0.80;99.90;;;;;;5051136;28;20090;-69
2022/02/12 03:01:10;;;;;;;12.80;2.80;;;-0.80;99.90;;;;;;5049202;28;20048;-69
2022/02/12 03:03:39;;;;;;;;;;;-0.80;99.90;;;;;;5047749;28;20770;-69
2022/02/12 03:06:06;;;;;;;26.92;3.28;;;-0.80;99.90;;;;;;5042391;28;20036;-69
2022/02/12 03:08:32;;;;;;;13.55;2.97;;;-0.80;99.90;;;;;;5049175;28;20090;-69
2022/02/12 03:10:58;;;;;;;15.93;2.95;;;-0.70;99.90;;;;;;5037378;28;20407;-69
2022/02/12 03:13:25;;;;;;;24.30;4.80;;;-0.60;99.90;;;;;;5032532;28;20123;-69
2022/02/12 03:15:51;;;;;;;13.07;3.47;;;-0.60;99.90;;;;;;5054045;28;20049;-69
2022/02/12 03:18:16;;;;;;;14.85;3.67;;;-0.60;99.90;;;;;;5029170;28;20053;-69
2022/02/12 03:20:42;;;;;;;24.23;3.47;;;-0.60;99.90;;;;;;5033304;28;20052;-69
2022/02/12 03:23:08;;;;;;;21.00;4.10;;;-0.60;99.90;;;;;;5030883;28;20523;-69
2022/02/12 03:25:34;;;;;;;16.70;3.65;;;-0.60;99.90;;;;;;5024552;28;20474;-69
2022/02/12 03:28:02;;;;;;;21.33;4.05;;;-0.60;99.90;;;;;;5033646;28;20044;-70
2022/02/12 03:30:34;;;;;;;19.73;4.68;;;-0.60;99.90;;;;;;5019949;28;20057;-70
2022/02/12 03:33:00;;;;;;;15.00;4.32;;;-0.70;99.90;;;;;;5045310;28;20136;-70
2022/02/12 03:35:29;;;;;;;28.05;5.43;;;-0.70;99.90;;;;;;5028412;28;20136;-70
2022/02/12 03:38:06;;;;;;;16.17;4.65;;;-0.70;99.90;;;;;;5032713;28;20132;-70
2022/02/12 03:40:31;;;;;;;17.73;4.78;;;-0.60;99.90;;;;;;5033236;28;20495;-70
2022/02/12 03:42:57;;;;;;;18.45;4.90;;;-0.60;99.90;;;;;;5031808;28;20052;-70
2022/02/12 03:45:23;;;;;;;18.23;5.25;;;-0.60;99.90;;;;;;5033334;28;20052;-70
2022/02/12 03:47:50;;;;;;;12.65;4.93;;;-0.60;99.90;;;;;;5033305;28;20505;-70
2022/02/12 03:50:16;;;;;;;19.90;5.50;;;-0.60;99.90;;;;;;5029066;28;20037;-70
2022/02/12 03:52:42;;;;;;;16.42;5.10;;;-0.60;99.90;;;;;;5035554;28;20507;-70
2022/02/12 03:55:08;;;;;;;19.00;5.60;;;-0.60;99.90;;;;;;5024606;28;20049;-70
2022/02/12 03:57:36;;;;;;;30.42;5.70;;;-0.60;99.90;;;;;;4997825;28;20041;-70
2022/02/12 04:00:06;;;;;;;23.30;5.60;;;-0.60;99.90;;;;;;5026856;28;20046;-70
2022/02/12 04:02:32;;;;;;;17.47;6.07;;;-0.60;99.90;;;;;;5030578;28;20096;-70
2022/02/12 04:04:58;;;;;;;20.75;5.20;;;-0.70;99.90;;;;;;5022509;28;20037;-70
2022/02/12 04:07:24;;;;;;;22.63;4.55;;;-0.70;99.90;;;;;;5029933;28;20498;-70
2022/02/12 04:09:50;;;;;;;19.88;4.35;;;-0.70;99.90;;;;;;5008202;28;20056;-70
2022/02/12 04:12:16;;;;;;;20.48;4.63;;;-0.70;99.90;;;;;;5028416;28;20041;-70
2022/02/12 04:14:41;;;;;;;22.70;4.40;;;-0.70;99.90;;;;;;5009163;28;20087;-70
2022/02/12 04:17:07;;;;;;;11.35;3.22;;;-0.70;99.90;;;;;;5026932;28;20049;-70
2022/02/12 04:19:33;;;;;;;16.63;3.10;;;-0.70;99.90;;;;;;5025437;28;20048;-70
2022/02/12 04:21:58;;;;;;;17.77;3.85;;;-0.70;99.90;;;;;;5031340;28;20090;-70
2022/02/12 04:24:24;;;;;;;20.90;3.72;;;-0.70;99.90;;;;;;5045051;28;20056;-70
2022/02/12 04:26:50;;;;;;;14.63;3.40;;;-0.70;99.90;;;;;;5025134;28;20069;-70
2022/02/12 04:29:15;;;;;;;25.73;4.07;;;-0.80;99.90;;;;;;5026522;28;20045;-71
2022/02/12 04:31:41;;;;;;;15.52;3.33;;;-0.80;99.90;;;;;;5038169;28;20053;-70
2022/02/12 04:34:07;;;;;;;19.05;3.15;;;-0.80;99.90;;;;;;5037308;28;20045;-70
2022/02/12 04:36:33;;;;;;;14.25;2.95;;;-0.70;99.90;;;;;;5028039;28;20052;-70
2022/02/12 04:38:58;;;;;;;15.18;3.38;;;-0.70;99.90;;;;;;5036947;28;20080;-71
2022/02/12 04:41:24;;;;;;;19.70;2.88;;;-0.70;99.90;;;;;;5025957;28;20080;-70
2022/02/12 04:43:50;;;;;;;13.82;3.67;;;-0.70;99.90;;;;;;5016011;28;20977;-70
2022/02/12 04:46:16;;;;;;;20.77;4.00;;;-0.70;99.90;;;;;;5032286;28;20053;-70
2022/02/12 04:48:42;;;;;;;24.52;2.88;;;-0.70;99.90;;;;;;5029429;28;20040;-70
2022/02/12 04:51:09;;;;;;;14.38;2.80;;;-0.70;99.90;;;;;;5034693;28;20656;-71
2022/02/12 04:53:35;;;;;;;15.95;2.92;;;-0.70;99.90;;;;;;5035431;28;20049;-70
2022/02/12 04:56:00;;;;;;;25.00;3.92;;;-0.70;99.90;;;;;;5043761;28;20045;-71
2022/02/12 04:58:27;;;;;;;21.90;2.95;;;-0.70;99.90;;;;;;5028923;28;20038;-71
2022/02/12 05:00:53;;;;;;;20.15;4.13;;;-0.60;99.90;;;;;;5025239;28;20528;-70
2022/02/12 05:03:18;;;;;;;13.30;3.00;;;-0.60;99.90;;;;;;5031255;28;20056;-70
2022/02/12 05:05:44;;;;;;;27.05;3.38;;;-0.50;99.90;;;;;;5027136;28;20048;-70
2022/02/12 05:08:09;;;;;;;12.63;3.30;;;-0.50;99.90;;;;;;5035718;28;20045;-70
2022/02/12 05:10:35;;;;;;;6.55;2.90;;;-0.50;99.90;;;;;;5023763;28;20084;-70
2022/02/12 05:13:01;;;;;;;28.42;3.17;;;-0.50;99.90;;;;;;5030238;28;20528;-70
2022/02/12 05:15:26;;;;;;;19.45;3.40;;;-0.40;99.90;;;;;;5024082;28;20541;-71
2022/02/12 05:17:53;;;;;;;18.85;2.92;;;-0.30;99.90;;;;;;5025463;28;20056;-71
2022/02/12 05:20:19;;;;;;;15.43;3.13;;;-0.40;99.90;;;;;;5025615;28;20053;-70
2022/02/12 05:22:45;;;;;;;14.73;2.53;;;-0.40;99.90;;;;;;5028645;28;20431;-71
2022/02/12 05:25:10;;;;;;;20.30;3.35;;;-0.40;99.90;;;;;;5037781;28;20053;-71
2022/02/12 05:27:37;;;;;;;13.20;3.17;;;-0.40;99.90;;;;;;5025056;28;20046;-70
2022/02/12 05:30:03;;;;;;;23.20;3.50;;;-0.40;99.90;;;;;;5028865;28;20051;-71
2022/02/12 05:32:29;;;;;;;24.77;3.28;;;-0.30;99.90;;;;;;5043300;28;20522;-71
2022/02/12 05:34:56;;;;;;;23.17;3.05;;;-0.40;99.90;;;;;;5041262;28;20041;-71
2022/02/12 05:37:22;;;;;;;25.50;3.40;;;-0.30;99.90;;;;;;5024994;28;20385;-71
2022/02/12 05:39:47;;;;;;;23.55;3.55;;;-0.40;99.90;;;;;;5024196;28;20112;-70
2022/02/12 05:42:13;;;;;;;17.05;3.10;;;-0.40;99.90;;;;;;5009068;28;20068;-71
2022/02/12 05:44:39;;;;;;;19.27;3.13;;;-0.40;99.90;;;;;;5017895;28;20056;-71
2022/02/12 05:47:04;;;;;;;31.40;3.58;;;-0.40;99.90;;;;;;5025361;28;20496;-71
2022/02/12 05:49:30;;;;;;;23.77;3.50;;;-0.40;99.90;;;;;;5023760;28;20061;-70
2022/02/12 05:51:56;;;;;;;33.35;3.88;;;-0.40;99.90;;;;;;5025387;28;20554;-70
2022/02/12 05:54:22;;;;;;;17.60;3.30;;;-0.40;99.90;;;;;;5028710;28;20076;-70
2022/02/12 05:56:47;;;;;;;14.25;2.90;;;-0.40;99.90;;;;;;5042980;28;20049;-71
2022/02/12 05:59:13;;;;;;;23.02;3.95;;;-0.50;99.90;;;;;;5008357;28;20487;-70
2022/02/12 06:01:42;;;;;;;12.68;3.20;;;-0.40;99.90;;;;;;5037628;28;20049;-71
2022/02/12 06:04:08;;;;;;;24.73;3.28;;;-0.40;99.90;;;;;;5015775;28;20048;-71
2022/02/12 06:06:34;;;;;;;21.00;3.22;;;-0.40;99.90;;;;;;5034330;28;20056;-70
2022/02/12 06:09:00;;;;;;;16.52;3.60;;;-0.40;99.90;;;;;;5031437;28;20052;-70
2022/02/12 06:11:26;;;;;;;22.20;3.80;;;-0.40;99.90;;;;;;5040778;28;20488;-70
2022/02/12 06:13:52;;;;;;;13.63;3.25;;;-0.40;99.90;;;;;;5041655;28;20037;-71
2022/02/12 06:16:21;;;;;;;21.40;4.22;;;-0.40;99.90;;;;;;5042495;28;20116;-71
2022/02/12 06:18:47;;;;;;;16.20;3.28;;;-0.40;99.90;;;;;;5047780;28;20048;-70
2022/02/12 06:21:13;;;;;;;13.98;4.00;;;-0.40;99.90;;;;;;5032465;28;20388;-71
2022/02/12 06:23:39;;;;;;;27.40;4.70;;;-0.40;99.90;;;;;;5046421;28;20037;-71
2022/02/12 06:26:06;;;;;;;11.25;3.30;;;-0.40;99.90;;;;;;5015698;28;20098;-70
2022/02/12 06:28:32;;;;;;;16.17;4.25;;;-0.40;99.90;;;;;;5030258;28;20052;-70
2022/02/12 06:31:01;;;;;;;14.27;3.40;;;-0.40;99.90;;;;;;5048631;28;20057;-70
2022/02/12 06:33:28;;;;;;;18.98;3.67;;;-0.40;99.90;;;;;;5047100;28;20045;-70
2022/02/12 06:35:54;;;;;;;22.70;4.38;;;-0.40;99.90;;;;;;5047794;28;20068;-71
2022/02/12 06:38:20;;;;;;;14.35;4.45;;;-0.40;99.90;;;;;;5048404;28;20122;-70
2022/02/12 06:40:46;;;;;;;24.92;4.43;;;-0.40;99.90;;;;;;5046979;28;20491;-71
2022/02/12 06:43:12;;;;;;;18.65;4.00;;;-0.40;99.90;;;;;;5048238;28;20037;-71
2022/02/12 06:45:39;;;;;;;18.20;3.83;;;-0.30;99.90;;;;;;5029557;28;20069;-71
2022/02/12 06:48:05;;;;;;;17.10;4.40;;;-0.30;99.90;;;;;;5047888;28;20061;-71
2022/02/12 06:50:32;;;;;;;15.50;4.15;;;-0.30;99.90;;;;;;5032949;28;20041;-71
2022/02/12 06:52:59;;;;;;;14.55;3.92;;;-0.30;99.90;;;;;;5032044;28;20403;-71
2022/02/12 06:55:25;;;;;;;22.10;5.00;;;-0.30;99.90;;;;;;5042578;28;20140;-70
2022/02/12 06:57:51;;;;;;;16.13;3.92;;;-0.30;99.90;;;;;;5042291;28;20131;-71
2022/02/12 07:00:18;;;;;;;18.48;3.65;;;-0.30;99.90;;;;;;5045451;28;20052;-71
2022/02/12 07:02:43;;;;;;;19.92;4.68;;;-0.30;99.90;;;;;;5040857;28;20041;-71
2022/02/12 07:05:09;;;;;;;17.52;3.92;;;-0.20;99.90;;;;;;5047354;28;20052;-70
2022/02/12 07:07:46;;;;;;;27.92;4.95;;;-0.10;99.90;;;;;;5041277;28;20135;-70
2022/02/12 07:10:12;;;;;;;17.10;4.85;;;-0.10;99.90;;;;;;5004705;28;20037;-71
2022/02/12 07:12:38;;;;;;;13.43;3.95;;;0.00;99.90;;;;;;5026856;28;20463;-70
2022/02/12 07:15:05;;;;;;;16.55;3.65;;;0.00;99.90;;;;;;5034905;28;20490;-71
2022/02/12 07:17:32;;;;;;;22.13;5.07;;;0.10;99.90;;;;;;5031912;28;20103;-71
2022/02/12 07:19:57;;;;;;;10.45;3.22;;;0.10;99.90;;;;;;5037290;28;21014;-71
2022/02/12 07:22:26;;;;;;;14.45;3.50;;;0.10;99.90;;;;;;5031179;28;20075;-71
2022/02/12 07:24:55;;;;;;;20.58;4.72;;;0.10;99.90;;;;;;5026693;28;20068;-70
2022/02/12 07:27:20;;;;;;;23.25;4.68;;;0.10;99.90;;;;;;5027839;28;20049;-71
2022/02/12 07:29:49;;;;;;;23.92;4.50;;;0.20;99.90;;;;;;5027389;28;20084;-71
2022/02/12 07:32:15;;;;;;;8.35;2.47;;;0.20;99.90;;;;;;5045161;28;20459;-71
2022/02/12 07:34:41;;;;;;;16.98;3.80;;;0.30;99.90;;;;;;5046612;28;20060;-70
2022/02/12 07:37:06;;;;;;;20.63;5.25;;;0.30;99.90;;;;;;5037886;28;20041;-71
2022/02/12 07:39:33;;;;;;;15.40;4.22;;;0.30;99.90;;;;;;5047269;28;20045;-70
2022/02/12 07:41:59;;;;;;;12.77;4.35;;;0.30;99.90;;;;;;5041581;28;20049;-70
2022/02/12 07:44:25;;;;;;;20.15;5.75;;;0.40;99.90;;;;;;5047344;28;20048;-72
2022/02/12 07:46:51;;;;;;;31.65;6.75;;;0.40;99.90;;;;;;5034113;28;20041;-71
2022/02/12 07:49:16;;;;;;;12.73;3.85;;;0.50;99.90;;;;;;5025085;28;20049;-70
2022/02/12 07:51:42;;;;;;;20.70;5.32;;;0.50;99.90;;;;;;5042179;28;20045;-71
2022/02/12 07:54:08;;;;;;;16.50;4.63;;;0.60;99.90;;;;;;5030080;28;20053;-70
2022/02/12 07:56:33;;;;;;;24.70;5.45;;;0.70;99.90;;;;;;5046473;28;20131;-71
2022/02/12 07:58:59;;;;;;;15.48;5.82;;;0.80;99.90;;;;;;5045506;28;20060;-70
2022/02/12 08:01:25;;;;;;;18.45;4.47;;;0.80;99.90;;;;;;5026659;28;20053;-70
2022/02/12 08:03:51;;;;;;;28.83;5.13;;;0.80;99.90;;;;;;5042663;28;20419;-70
2022/02/12 08:09:01;;;;;;;18.08;5.88;;;0.90;99.90;;;;;;5045108;28;20044;-70
2022/02/12 08:11:32;;;;;;;21.50;6.88;;;1.00;99.90;;;;;;5034094;28;20399;-71
2022/02/12 08:14:04;;;;;;;17.83;6.30;;;1.10;99.90;;;;;;5025200;28;20555;-70
2022/02/12 08:16:30;;;;;;;7.85;3.47;;;1.20;99.90;;;;;;5025226;28;20132;-70
2022/02/12 08:18:55;;;;;;;16.70;5.60;;;1.20;99.90;;;;;;5026315;28;20045;-71
2022/02/12 08:21:21;;;;;;;23.95;6.30;;;1.30;99.90;;;;;;5026364;28;20140;-71
2022/02/12 08:23:47;;;;;;;14.60;4.90;;;1.30;99.90;;;;;;5036065;28;20041;-71
2022/02/12 08:26:14;;;;;;;19.45;5.75;;;1.30;99.90;;;;;;5025617;28;20042;-70
2022/02/12 08:28:41;;;;;;;15.80;5.57;;;1.40;99.90;;;;;;5026702;28;20092;-70
2022/02/12 08:31:07;;;;;;;21.63;5.72;;;1.50;99.90;;;;;;5029277;28;20061;-71
2022/02/12 08:33:33;;;;;;;21.25;6.65;;;1.50;99.90;;;;;;5030232;28;20049;-70
2022/02/12 08:35:58;;;;;;;14.55;4.53;;;1.50;99.90;;;;;;5018900;28;20088;-70
2022/02/12 08:38:24;;;;;;;24.73;6.38;;;1.60;99.90;;;;;;5030163;28;20094;-71
2022/02/12 08:40:50;;;;;;;21.85;6.15;;;1.60;99.90;;;;;;5022140;28;20323;-71
2022/02/12 08:43:16;;;;;;;23.45;6.07;;;1.60;99.90;;;;;;5026179;28;20033;-71
2022/02/12 08:45:42;;;;;;;13.68;5.50;;;1.70;99.90;;;;;;5034135;28;20045;-71
2022/02/12 08:48:09;;;;;;;25.27;6.05;;;1.70;99.90;;;;;;5043311;28;20053;-71
2022/02/12 08:50:36;;;;;;;27.35;6.15;;;1.80;99.90;;;;;;5031756;28;20045;-72
2022/02/12 08:53:02;;;;;;;24.45;6.60;;;1.80;99.90;;;;;;5045551;28;20045;-72
2022/02/12 08:55:28;;;;;;;21.95;5.95;;;1.90;99.90;;;;;;5044250;28;20416;-72
2022/02/12 08:57:55;;;;;;;14.02;4.38;;;2.00;99.90;;;;;;5028909;28;20499;-73
2022/02/12 09:00:21;;;;;;;40.28;7.93;;;2.00;99.90;;;;;;5035954;28;20063;-73
2022/02/12 09:02:47;;;;;;;21.02;5.18;;;2.10;99.90;;;;;;5018957;28;20053;-72
2022/02/12 09:05:12;;;;;;;19.00;6.57;;;2.20;99.90;;;;;;5027102;28;20041;-73
2022/02/12 09:07:38;;;;;;;18.20;4.45;;;2.20;99.90;;;;;;5028482;28;20041;-73
2022/02/12 09:10:05;;;;;;;18.42;6.03;;;2.30;99.90;;;;;;5036409;28;20045;-72
2022/02/12 09:12:32;;;;;;;21.75;6.40;;;2.30;99.90;;;;;;5024670;28;20049;-72
2022/02/12 09:14:58;;;;;;;16.40;5.95;;;2.40;99.90;;;;;;5016300;28;20094;-73
2022/02/12 09:17:24;;;;;;;24.27;6.15;;;2.40;99.90;;;;;;5030271;28;20041;-73
2022/02/12 09:19:52;;;;;;;20.35;6.18;;;2.50;99.90;;;;;;5028480;28;20052;-73
2022/02/12 09:22:18;;;;;;;29.35;6.53;;;2.50;99.90;;;;;;5027014;28;20049;-73
2022/02/12 09:24:43;;;;;;;9.38;3.30;;;2.60;99.90;;;;;;5027095;28;20049;-73
2022/02/12 09:27:09;;;;;;;16.38;4.13;;;2.60;99.90;;;;;;5008559;28;20416;-73
2022/02/12 09:29:35;;;;;;;22.08;4.55;;;2.70;99.90;;;;;;5007793;28;20089;-73
2022/02/12 09:32:01;;;;;;;15.43;4.65;;;2.70;99.90;;;;;;5016979;28;20495;-73
2022/02/12 09:34:27;;;;;;;19.15;5.43;;;2.70;99.90;;;;;;5029764;28;20049;-76
2022/02/12 09:36:53;;;;;;;11.90;2.75;;;2.80;99.90;;;;;;4992700;28;20045;-76
2022/02/12 09:39:19;;;;;;;18.88;3.72;;;2.80;99.90;;;;;;5006637;28;20329;-74
2022/02/12 09:41:45;;;;;;;15.35;4.88;;;2.90;99.90;;;;;;5008621;28;20053;-74
2022/02/12 09:44:11;;;;;;;21.58;5.28;;;2.90;99.90;;;;;;5032315;28;20492;-74
2022/02/12 09:47:04;;;;;;;11.93;5.25;;;3.00;99.90;;;;;;5022315;28;20055;-74
2022/02/12 09:49:32;;;;;;;22.17;5.35;;;3.10;99.90;;;;;;5026501;28;20060;-74
2022/02/12 09:52:02;;;;;;;13.75;4.72;;;3.20;99.90;;;;;;5022995;28;20037;-74
2022/02/12 09:54:29;;;;;;;7.70;2.22;;;3.20;99.90;;;;;;5030332;28;20045;-74
2022/02/12 09:56:55;;;;;;;14.63;3.88;;;3.30;99.90;;;;;;5023137;28;20045;-74
2022/02/12 09:59:21;;;;;;;20.10;5.80;;;3.40;99.90;;;;;;5017423;28;20041;-74
2022/02/12 10:01:47;;;;;;;18.75;5.32;;;3.40;99.90;;;;;;5026122;28;20038;-74
2022/02/12 10:04:17;;;;;;;17.00;4.55;;;3.40;99.90;;;;;;5015704;28;20103;-74
2022/02/12 10:06:45;;;;;;;10.27;4.15;;;3.50;99.90;;;;;;5028783;28;20045;-74
2022/02/12 10:09:12;;;;;;;20.20;4.68;;;3.50;99.90;;;;;;5041493;28;20049;-74
2022/02/12 10:11:49;;;;;;;15.38;4.20;;;3.50;99.90;;;;;;5025791;28;20132;-74
2022/02/12 10:14:20;;;;;;;14.50;4.38;;;3.60;99.90;;;;;;5009504;28;20788;-74
2022/02/12 10:17:02;;;;;;;11.13;3.05;;;3.60;99.90;;;;;;5020799;28;20042;-73
2022/02/12 10:19:40;;;;;;;19.02;4.50;;;3.70;99.90;;;;;;5020413;28;20049;-74
2022/02/12 10:22:13;;;;;;;26.58;5.50;;;3.80;99.90;;;;;;5024705;28;20048;-74
2022/02/12 10:25:00;;;;;;;10.20;3.53;;;3.90;99.90;;;;;;5025786;28;20077;-74
2022/02/12 10:27:27;;;;;;;22.63;5.38;;;3.90;99.90;;;;;;5032029;28;20084;-73
2022/02/12 10:30:01;;;;;;;21.30;5.53;;;4.00;99.90;;;;;;5023938;28;20132;-73
2022/02/12 10:32:27;;;;;;;17.00;3.83;;;4.10;99.90;;;;;;5020688;28;20136;-73
2022/02/12 10:34:56;;;;;;;22.23;4.63;;;4.10;99.90;;;;;;5028052;28;20127;-73
2022/02/12 10:37:23;;;;;;;23.65;5.00;;;4.10;99.90;;;;;;5025498;28;20051;-73
2022/02/12 10:39:57;;;;;;;17.60;4.32;;;4.20;99.90;;;;;;5022785;28;20050;-73
2022/02/12 10:42:30;;;;;;;20.30;4.45;;;4.30;99.90;;;;;;5025414;28;20045;-73
2022/02/12 10:44:56;;;;;;;16.05;3.10;;;4.40;99.90;;;;;;5026101;28;20050;-73
2022/02/12 10:47:23;;;;;;;11.27;3.63;;;4.50;99.90;;;;;;5019053;28;20717;-73
2022/02/12 10:49:49;;;;;;;21.35;5.13;;;4.50;99.90;;;;;;5024528;28;20439;-73
2022/02/12 10:52:17;;;;;;;15.02;2.60;;;4.60;99.90;;;;;;5011243;28;20466;-72
2022/02/12 10:54:50;;;;;;;9.45;2.38;;;4.60;99.90;;;;;;5033322;28;20057;-73
2022/02/12 10:57:18;;;;;;;15.50;2.95;;;4.70;99.90;;;;;;5040976;28;20096;-73
2022/02/12 10:59:44;;;;;;;19.52;4.35;;;4.70;99.90;;;;;;5028595;28;20171;-73
2022/02/12 11:02:15;;;;;;;11.35;3.08;;;4.80;99.90;;;;;;5028507;28;20385;-72
2022/02/12 11:04:43;;;;;;;20.33;3.80;;;4.90;99.90;;;;;;5030383;28;20458;-72
2022/02/12 11:07:13;;;;;;;12.85;2.75;;;4.90;99.90;;;;;;5027847;28;20522;-73
2022/02/12 11:09:39;;;;;;;10.40;2.78;;;5.00;99.90;;;;;;5026343;28;20041;-72
2022/02/12 11:12:06;;;;;;;17.02;3.60;;;5.10;99.90;;;;;;5006556;28;20053;-72
2022/02/12 11:14:33;;;;;;;13.27;3.92;;;5.10;99.90;;;;;;5045574;28;20484;-73
2022/02/12 11:17:22;;;;;;;9.65;3.30;;;5.10;99.90;;;;;;5047506;28;20044;-73
2022/02/12 11:19:52;;;;;;;20.42;3.63;;;5.10;99.90;;;;;;5047219;28;20037;-72
2022/02/12 11:22:18;;;;;;;15.88;3.42;;;5.30;99.90;;;;;;5046540;28;20057;-72
2022/02/12 11:24:45;;;;;;;13.68;3.75;;;5.30;99.90;;;;;;5047418;28;20041;-72
2022/02/12 11:27:19;;;;;;;15.70;1.88;;;5.40;99.90;;;;;;5045097;28;20502;-72
2022/02/12 11:29:47;;;;;;;15.82;3.60;;;5.40;99.90;;;;;;5048174;28;20049;-72
2022/02/12 11:32:19;;;;;;;14.35;4.30;;;5.40;99.90;;;;;;5054430;28;20053;-72
2022/02/12 11:34:59;;;;;;;14.18;3.20;;;5.50;99.90;;;;;;5064820;28;20088;-72
2022/02/12 11:37:32;;;;;;;;;;;5.50;99.90;;;;;;5050978;28;20060;-72
2022/02/12 11:40:14;;;;;;;7.85;2.08;;;5.50;99.90;;;;;;5039949;28;20007;-73
2022/02/12 11:42:47;;;;;;;16.70;3.88;;;5.50;99.90;;;;;;5042184;28;20044;-72
2022/02/12 11:45:47;;;;;;;17.17;3.72;;;5.60;99.90;;;;;;5015456;28;20048;-75
2022/02/12 11:48:17;;;;;;;15.00;3.67;;;5.60;99.90;;;;;;5035562;28;20060;-73
2022/02/12 11:50:49;;;;;;;;;;;5.70;99.90;;;;;;5067625;28;20410;-72
2022/02/12 11:53:54;;;;;;;19.23;3.38;;;5.70;99.90;;;;;;5064893;28;20382;-72
2022/02/12 11:56:20;;;;;;;17.88;2.97;;;5.70;99.90;;;;;;5042314;28;20139;-73
2022/02/12 11:58:47;;;;;;;18.25;3.72;;;5.80;99.90;;;;;;5037713;28;20131;-72
2022/02/12 12:01:22;;;;;;;13.20;3.22;;;5.90;99.90;;;;;;5046509;28;20052;-72
2022/02/12 12:04:03;;;;;;;7.43;1.95;;;5.90;99.90;;;;;;5047354;28;20372;-72
2022/02/12 12:06:30;;;;;;;5.43;2.08;;;6.00;99.90;;;;;;5048673;28;20060;-72
2022/02/12 12:09:08;;;;;;;10.13;3.17;;;5.90;99.90;;;;;;5049531;28;20045;-72
2022/02/12 12:11:35;;;;;;;7.00;2.85;;;5.80;99.70;;;;;;5025609;28;20052;-72
2022/02/12 12:14:23;;;;;;;16.52;3.42;;;5.90;99.90;;;;;;5047999;28;20082;-73
2022/02/12 12:16:54;;;;;;;12.52;2.88;;;5.90;99.90;;;;;;5067193;28;20134;-73
2022/02/12 12:19:27;;;;;;;10.45;3.50;;;5.90;99.90;;;;;;5048476;28;20141;-73
2022/02/12 12:22:02;;;;;;;7.05;2.75;;;6.00;99.90;;;;;;5022031;28;20115;-72
2022/02/12 12:24:28;;;;;;;17.83;3.40;;;6.00;99.90;;;;;;5046857;28;20185;-73
2022/02/12 12:26:55;;;;;;;8.85;2.88;;;6.00;99.90;;;;;;5037346;28;20040;-73
2022/02/12 12:32:21;;;;;;;13.15;3.60;;;6.10;99.90;;;;;;5036809;28;20050;-73
2022/02/12 12:35:00;;;;;;;16.52;3.60;;;6.00;99.90;;;;;;5023737;28;20143;-73
2022/02/12 12:37:29;;;;;;;18.88;4.03;;;6.00;99.90;;;;;;5036343;28;20045;-73
2022/02/12 12:39:57;;;;;;;16.35;3.53;;;6.10;99.90;;;;;;5026058;28;20045;-73
2022/02/12 12:42:25;;;;;;;10.30;3.38;;;6.10;99.90;;;;;;5029111;28;20045;-73
2022/02/12 12:45:14;;;;;;;17.83;3.10;;;6.10;99.90;;;;;;5042801;28;20037;-73
2022/02/12 12:47:53;;;;;;;8.38;2.40;;;6.20;99.90;;;;;;5016775;28;20500;-72
2022/02/12 12:50:19;;;;;;;16.58;3.15;;;6.20;99.90;;;;;;5044574;28;20063;-72
2022/02/12 12:52:45;;;;;;;14.80;2.85;;;6.20;99.90;;;;;;5028796;28;20519;-73
2022/02/12 12:55:13;;;;;;;12.35;3.25;;;6.30;99.90;;;;;;5011980;28;20049;-72
2022/02/12 12:57:42;;;;;;;19.90;3.20;;;6.30;99.90;;;;;;5028015;28;20155;-73